sensor_id;sensor_type;location;lat;lon;timestamp;temperature;humidity
3360;DHT22;1693;49.602;11.046;2022-07-24T00:01:37;17.40;99.90
3360;DHT22;1693;49.602;11.046;2022-07-24T00:04:07;17.30;99.90
3360;DHT22;1693;49.602;11.046;2022-07-24T00:06:34;17.10;99.90
3360;DHT22;1693;49.602;11.046;2022-07-24T00:09:01;17.00;99.90
3360;DHT22;1693;49.602;11.046;2022-07-24T00:11:29;16.80;99.90
3360;DHT22;1693;49.602;11.046;2022-07-24T00:14:00;16.70;99.90
3360;DHT22;1693;49.602;11.046;2022-07-24T00:16:29;16.60;99.90
3360;DHT22;1693;49.602;11.046;2022-07-24T00:18:56;16.50;99.90
3360;DHT22;1693;49.602;11.046;2022-07-24T00:21:24;16.50;99.90
3360;DHT22;1693;49.602;11.046;2022-07-24T00:23:53;16.50;99.90
3360;DHT22;1693;49.602;11.046;2022-07-24T00:26:21;16.40;99.90
3360;DHT22;1693;49.602;11.046;2022-07-24T00:28:50;16.30;99.90
3360;DHT22;1693;49.602;11.046;2022-07-24T00:31:17;16.30;99.90
3360;DHT22;1693;49.602;11.046;2022-07-24T00:33:44;16.30;99.90
3360;DHT22;1693;49.602;11.046;2022-07-24T00:36:14;16.30;99.90
3360;DHT22;1693;49.602;11.046;2022-07-24T00:38:44;16.30;99.90
3360;DHT22;1693;49.602;11.046;2022-07-24T00:41:11;16.30;99.90
3360;DHT22;1693;49.602;11.046;2022-07-24T00:43:58;16.30;99.90
3360;DHT22;1693;49.602;11.046;2022-07-24T00:46:25;16.40;99.90
3360;DHT22;1693;49.602;11.046;2022-07-24T00:48:55;16.40;99.90
3360;DHT22;1693;49.602;11.046;2022-07-24T00:51:22;16.40;99.90
3360;DHT22;1693;49.602;11.046;2022-07-24T00:53:53;16.40;99.90
3360;DHT22;1693;49.602;11.046;2022-07-24T00:56:21;16.40;99.90
3360;DHT22;1693;49.602;11.046;2022-07-24T00:58:51;16.40;99.90
3360;DHT22;1693;49.602;11.046;2022-07-24T01:01:18;16.40;99.90
3360;DHT22;1693;49.602;11.046;2022-07-24T01:03:47;16.40;99.90
3360;DHT22;1693;49.602;11.046;2022-07-24T01:06:14;16.30;99.90
3360;DHT22;1693;49.602;11.046;2022-07-24T01:08:42;16.40;99.90
3360;DHT22;1693;49.602;11.046;2022-07-24T01:11:16;16.40;99.90
3360;DHT22;1693;49.602;11.046;2022-07-24T01:13:46;16.30;99.90
3360;DHT22;1693;49.602;11.046;2022-07-24T01:16:14;16.30;99.90
3360;DHT22;1693;49.602;11.046;2022-07-24T01:18:41;16.20;99.90
3360;DHT22;1693;49.602;11.046;2022-07-24T01:21:11;16.10;99.90
3360;DHT22;1693;49.602;11.046;2022-07-24T01:23:39;16.00;99.90
3360;DHT22;1693;49.602;11.046;2022-07-24T01:26:07;15.90;99.90
3360;DHT22;1693;49.602;11.046;2022-07-24T01:28:34;15.80;99.90
3360;DHT22;1693;49.602;11.046;2022-07-24T01:31:03;15.80;99.90
3360;DHT22;1693;49.602;11.046;2022-07-24T01:33:32;15.80;99.90
3360;DHT22;1693;49.602;11.046;2022-07-24T01:35:59;15.80;99.90
3360;DHT22;1693;49.602;11.046;2022-07-24T01:38:29;15.80;99.90
3360;DHT22;1693;49.602;11.046;2022-07-24T01:40:58;15.80;99.90
3360;DHT22;1693;49.602;11.046;2022-07-24T01:43:25;15.90;99.90
3360;DHT22;1693;49.602;11.046;2022-07-24T01:45:55;15.90;99.90
3360;DHT22;1693;49.602;11.046;2022-07-24T01:48:24;15.90;99.90
3360;DHT22;1693;49.602;11.046;2022-07-24T01:50:52;16.00;99.90
3360;DHT22;1693;49.602;11.046;2022-07-24T01:53:20;15.90;99.90
3360;DHT22;1693;49.602;11.046;2022-07-24T01:55:54;15.80;99.90
3360;DHT22;1693;49.602;11.046;2022-07-24T01:58:21;15.80;99.90
3360;DHT22;1693;49.602;11.046;2022-07-24T02:00:48;15.70;99.90
3360;DHT22;1693;49.602;11.046;2022-07-24T02:03:16;15.60;99.90
3360;DHT22;1693;49.602;11.046;2022-07-24T02:05:45;15.50;99.90
3360;DHT22;1693;49.602;11.046;2022-07-24T02:08:13;15.40;99.90
3360;DHT22;1693;49.602;11.046;2022-07-24T02:10:42;15.40;99.90
3360;DHT22;1693;49.602;11.046;2022-07-24T02:13:10;15.30;99.90
3360;DHT22;1693;49.602;11.046;2022-07-24T02:15:39;15.20;99.90
3360;DHT22;1693;49.602;11.046;2022-07-24T02:18:07;15.20;99.90
3360;DHT22;1693;49.602;11.046;2022-07-24T02:20:35;15.20;99.90
3360;DHT22;1693;49.602;11.046;2022-07-24T02:23:04;15.20;99.90
3360;DHT22;1693;49.602;11.046;2022-07-24T02:25:32;15.30;99.90
3360;DHT22;1693;49.602;11.046;2022-07-24T02:28:00;15.30;99.90
3360;DHT22;1693;49.602;11.046;2022-07-24T02:30:30;15.20;99.90
3360;DHT22;1693;49.602;11.046;2022-07-24T02:32:57;15.20;99.90
3360;DHT22;1693;49.602;11.046;2022-07-24T02:35:24;15.20;99.90
3360;DHT22;1693;49.602;11.046;2022-07-24T02:37:52;15.30;99.90
3360;DHT22;1693;49.602;11.046;2022-07-24T02:40:20;15.20;99.90
3360;DHT22;1693;49.602;11.046;2022-07-24T02:42:48;15.20;99.90
3360;DHT22;1693;49.602;11.046;2022-07-24T02:45:17;15.20;99.90
3360;DHT22;1693;49.602;11.046;2022-07-24T02:47:51;15.20;99.90
3360;DHT22;1693;49.602;11.046;2022-07-24T02:50:21;15.20;99.90
3360;DHT22;1693;49.602;11.046;2022-07-24T02:52:49;15.20;99.90
3360;DHT22;1693;49.602;11.046;2022-07-24T02:55:16;15.30;99.90
3360;DHT22;1693;49.602;11.046;2022-07-24T02:57:43;15.30;99.90
3360;DHT22;1693;49.602;11.046;2022-07-24T03:00:14;15.30;99.90
3360;DHT22;1693;49.602;11.046;2022-07-24T03:02:41;15.40;99.90
3360;DHT22;1693;49.602;11.046;2022-07-24T03:05:11;15.40;99.90
3360;DHT22;1693;49.602;11.046;2022-07-24T03:07:38;15.40;99.90
3360;DHT22;1693;49.602;11.046;2022-07-24T03:10:07;15.50;99.90
3360;DHT22;1693;49.602;11.046;2022-07-24T03:12:34;15.50;99.90
3360;DHT22;1693;49.602;11.046;2022-07-24T03:15:02;15.60;99.90
3360;DHT22;1693;49.602;11.046;2022-07-24T03:17:29;15.60;99.90
3360;DHT22;1693;49.602;11.046;2022-07-24T03:19:56;15.60;99.90
3360;DHT22;1693;49.602;11.046;2022-07-24T03:22:25;15.60;99.90
3360;DHT22;1693;49.602;11.046;2022-07-24T03:24:53;15.50;99.90
3360;DHT22;1693;49.602;11.046;2022-07-24T03:27:21;15.50;99.90
3360;DHT22;1693;49.602;11.046;2022-07-24T03:29:49;15.50;99.90
3360;DHT22;1693;49.602;11.046;2022-07-24T03:32:16;15.50;99.90
3360;DHT22;1693;49.602;11.046;2022-07-24T03:34:43;15.50;99.90
3360;DHT22;1693;49.602;11.046;2022-07-24T03:37:10;15.40;99.90
3360;DHT22;1693;49.602;11.046;2022-07-24T03:39:38;15.40;99.90
3360;DHT22;1693;49.602;11.046;2022-07-24T03:42:05;15.30;99.90
3360;DHT22;1693;49.602;11.046;2022-07-24T03:44:33;15.30;99.90
3360;DHT22;1693;49.602;11.046;2022-07-24T03:47:00;15.30;99.90
3360;DHT22;1693;49.602;11.046;2022-07-24T03:49:27;15.30;99.90
3360;DHT22;1693;49.602;11.046;2022-07-24T03:51:54;15.30;99.90
3360;DHT22;1693;49.602;11.046;2022-07-24T03:54:21;15.30;99.90
3360;DHT22;1693;49.602;11.046;2022-07-24T03:56:50;15.40;99.90
3360;DHT22;1693;49.602;11.046;2022-07-24T03:59:18;15.40;99.90
3360;DHT22;1693;49.602;11.046;2022-07-24T04:01:45;15.50;99.90
3360;DHT22;1693;49.602;11.046;2022-07-24T04:04:12;15.50;99.90
3360;DHT22;1693;49.602;11.046;2022-07-24T04:06:39;15.60;99.90
3360;DHT22;1693;49.602;11.046;2022-07-24T04:09:08;15.70;99.90
3360;DHT22;1693;49.602;11.046;2022-07-24T04:11:35;15.70;99.90
3360;DHT22;1693;49.602;11.046;2022-07-24T04:14:04;15.70;99.90
3360;DHT22;1693;49.602;11.046;2022-07-24T04:16:31;15.70;99.90
3360;DHT22;1693;49.602;11.046;2022-07-24T04:18:58;15.70;99.90
3360;DHT22;1693;49.602;11.046;2022-07-24T04:21:25;15.70;99.90
3360;DHT22;1693;49.602;11.046;2022-07-24T04:23:52;15.80;99.90
3360;DHT22;1693;49.602;11.046;2022-07-24T04:26:20;15.80;99.90
3360;DHT22;1693;49.602;11.046;2022-07-24T04:28:47;15.80;99.90
3360;DHT22;1693;49.602;11.046;2022-07-24T04:31:16;15.80;99.90
3360;DHT22;1693;49.602;11.046;2022-07-24T04:33:43;15.90;99.90
3360;DHT22;1693;49.602;11.046;2022-07-24T04:36:10;16.00;99.90
3360;DHT22;1693;49.602;11.046;2022-07-24T04:38:37;16.00;99.90
3360;DHT22;1693;49.602;11.046;2022-07-24T04:41:04;16.10;99.90
3360;DHT22;1693;49.602;11.046;2022-07-24T04:43:31;16.20;99.90
3360;DHT22;1693;49.602;11.046;2022-07-24T04:45:59;16.20;99.90
3360;DHT22;1693;49.602;11.046;2022-07-24T04:48:28;16.30;99.90
3360;DHT22;1693;49.602;11.046;2022-07-24T04:50:55;16.40;99.90
3360;DHT22;1693;49.602;11.046;2022-07-24T04:53:22;16.50;99.90
3360;DHT22;1693;49.602;11.046;2022-07-24T04:55:49;16.60;99.90
3360;DHT22;1693;49.602;11.046;2022-07-24T04:58:17;16.70;99.90
3360;DHT22;1693;49.602;11.046;2022-07-24T05:00:44;16.80;99.90
3360;DHT22;1693;49.602;11.046;2022-07-24T05:03:11;16.90;99.90
3360;DHT22;1693;49.602;11.046;2022-07-24T05:05:39;16.90;99.90
3360;DHT22;1693;49.602;11.046;2022-07-24T05:08:07;17.10;99.90
3360;DHT22;1693;49.602;11.046;2022-07-24T05:10:34;17.20;99.90
3360;DHT22;1693;49.602;11.046;2022-07-24T05:13:01;17.30;99.90
3360;DHT22;1693;49.602;11.046;2022-07-24T05:15:28;17.40;99.90
3360;DHT22;1693;49.602;11.046;2022-07-24T05:17:55;17.60;99.90
3360;DHT22;1693;49.602;11.046;2022-07-24T05:20:22;17.70;99.90
3360;DHT22;1693;49.602;11.046;2022-07-24T05:22:51;18.00;99.90
3360;DHT22;1693;49.602;11.046;2022-07-24T05:25:18;18.10;99.90
3360;DHT22;1693;49.602;11.046;2022-07-24T05:27:45;18.30;99.90
3360;DHT22;1693;49.602;11.046;2022-07-24T05:30:13;18.40;99.90
3360;DHT22;1693;49.602;11.046;2022-07-24T05:32:40;18.50;99.90
3360;DHT22;1693;49.602;11.046;2022-07-24T05:35:08;18.70;99.90
3360;DHT22;1693;49.602;11.046;2022-07-24T05:37:35;19.00;99.90
3360;DHT22;1693;49.602;11.046;2022-07-24T05:40:05;19.20;99.90
3360;DHT22;1693;49.602;11.046;2022-07-24T05:42:32;19.10;99.90
3360;DHT22;1693;49.602;11.046;2022-07-24T05:45:00;19.20;99.90
3360;DHT22;1693;49.602;11.046;2022-07-24T05:47:27;19.20;99.90
3360;DHT22;1693;49.602;11.046;2022-07-24T05:49:55;19.30;99.90
3360;DHT22;1693;49.602;11.046;2022-07-24T05:52:22;19.60;99.90
3360;DHT22;1693;49.602;11.046;2022-07-24T05:54:49;19.50;99.90
3360;DHT22;1693;49.602;11.046;2022-07-24T05:57:18;19.40;99.90
3360;DHT22;1693;49.602;11.046;2022-07-24T05:59:45;19.70;99.90
3360;DHT22;1693;49.602;11.046;2022-07-24T06:02:12;19.70;99.90
3360;DHT22;1693;49.602;11.046;2022-07-24T06:04:39;19.90;99.90
3360;DHT22;1693;49.602;11.046;2022-07-24T06:07:08;20.10;99.90
3360;DHT22;1693;49.602;11.046;2022-07-24T06:09:35;20.50;99.90
3360;DHT22;1693;49.602;11.046;2022-07-24T06:12:03;20.70;99.90
3360;DHT22;1693;49.602;11.046;2022-07-24T06:14:32;21.00;99.90
3360;DHT22;1693;49.602;11.046;2022-07-24T06:16:59;21.30;99.90
3360;DHT22;1693;49.602;11.046;2022-07-24T06:19:26;21.50;99.90
3360;DHT22;1693;49.602;11.046;2022-07-24T06:21:53;21.60;99.90
3360;DHT22;1693;49.602;11.046;2022-07-24T06:24:20;21.70;99.90
3360;DHT22;1693;49.602;11.046;2022-07-24T06:26:47;21.90;99.90
3360;DHT22;1693;49.602;11.046;2022-07-24T06:29:15;21.90;99.90
3360;DHT22;1693;49.602;11.046;2022-07-24T06:31:43;22.30;99.90
3360;DHT22;1693;49.602;11.046;2022-07-24T06:34:10;22.50;99.90
3360;DHT22;1693;49.602;11.046;2022-07-24T06:36:38;22.70;99.90
3360;DHT22;1693;49.602;11.046;2022-07-24T06:39:05;23.00;99.90
3360;DHT22;1693;49.602;11.046;2022-07-24T06:41:32;23.20;99.90
3360;DHT22;1693;49.602;11.046;2022-07-24T06:43:59;23.20;99.90
3360;DHT22;1693;49.602;11.046;2022-07-24T06:46:27;23.30;99.90
3360;DHT22;1693;49.602;11.046;2022-07-24T06:48:55;23.30;99.90
3360;DHT22;1693;49.602;11.046;2022-07-24T06:51:22;23.40;99.90
3360;DHT22;1693;49.602;11.046;2022-07-24T06:53:49;23.50;99.90
3360;DHT22;1693;49.602;11.046;2022-07-24T06:56:16;23.50;99.90
3360;DHT22;1693;49.602;11.046;2022-07-24T06:58:43;23.70;99.90
3360;DHT22;1693;49.602;11.046;2022-07-24T07:01:11;23.80;99.90
3360;DHT22;1693;49.602;11.046;2022-07-24T07:03:37;23.90;99.90
3360;DHT22;1693;49.602;11.046;2022-07-24T07:06:06;24.00;99.90
3360;DHT22;1693;49.602;11.046;2022-07-24T07:08:33;23.90;99.90
3360;DHT22;1693;49.602;11.046;2022-07-24T07:11:00;24.10;99.90
3360;DHT22;1693;49.602;11.046;2022-07-24T07:13:28;24.20;99.90
3360;DHT22;1693;49.602;11.046;2022-07-24T07:15:55;24.20;99.90
3360;DHT22;1693;49.602;11.046;2022-07-24T07:18:22;24.40;99.90
3360;DHT22;1693;49.602;11.046;2022-07-24T07:20:49;24.60;99.90
3360;DHT22;1693;49.602;11.046;2022-07-24T07:23:21;24.70;99.90
3360;DHT22;1693;49.602;11.046;2022-07-24T07:25:48;24.70;99.90
3360;DHT22;1693;49.602;11.046;2022-07-24T07:28:15;24.90;99.90
3360;DHT22;1693;49.602;11.046;2022-07-24T07:30:42;24.90;99.90
3360;DHT22;1693;49.602;11.046;2022-07-24T07:33:09;25.00;99.90
3360;DHT22;1693;49.602;11.046;2022-07-24T07:35:37;25.20;99.90
3360;DHT22;1693;49.602;11.046;2022-07-24T07:38:04;25.30;99.90
3360;DHT22;1693;49.602;11.046;2022-07-24T07:40:32;24.80;99.90
3360;DHT22;1693;49.602;11.046;2022-07-24T07:42:59;25.10;99.90
3360;DHT22;1693;49.602;11.046;2022-07-24T07:45:27;25.30;99.90
3360;DHT22;1693;49.602;11.046;2022-07-24T07:47:54;25.20;99.90
3360;DHT22;1693;49.602;11.046;2022-07-24T07:50:22;25.40;99.90
3360;DHT22;1693;49.602;11.046;2022-07-24T07:52:49;25.40;99.90
3360;DHT22;1693;49.602;11.046;2022-07-24T07:55:16;25.50;99.90
3360;DHT22;1693;49.602;11.046;2022-07-24T07:57:45;25.60;99.90
3360;DHT22;1693;49.602;11.046;2022-07-24T08:00:12;25.50;99.90
3360;DHT22;1693;49.602;11.046;2022-07-24T08:02:39;25.10;99.90
3360;DHT22;1693;49.602;11.046;2022-07-24T08:05:08;25.60;99.90
3360;DHT22;1693;49.602;11.046;2022-07-24T08:07:35;26.10;99.90
3360;DHT22;1693;49.602;11.046;2022-07-24T08:10:03;26.60;99.90
3360;DHT22;1693;49.602;11.046;2022-07-24T08:12:31;26.90;99.90
3360;DHT22;1693;49.602;11.046;2022-07-24T08:14:59;27.00;99.90
3360;DHT22;1693;49.602;11.046;2022-07-24T08:17:26;27.10;99.90
3360;DHT22;1693;49.602;11.046;2022-07-24T08:19:53;27.40;99.90
3360;DHT22;1693;49.602;11.046;2022-07-24T08:22:20;27.60;99.90
3360;DHT22;1693;49.602;11.046;2022-07-24T08:24:47;27.30;99.90
3360;DHT22;1693;49.602;11.046;2022-07-24T08:27:15;26.70;99.90
3360;DHT22;1693;49.602;11.046;2022-07-24T08:29:42;26.90;99.90
3360;DHT22;1693;49.602;11.046;2022-07-24T08:32:10;27.00;99.90
3360;DHT22;1693;49.602;11.046;2022-07-24T08:34:37;26.80;99.90
3360;DHT22;1693;49.602;11.046;2022-07-24T08:37:04;27.30;99.90
3360;DHT22;1693;49.602;11.046;2022-07-24T08:39:31;27.40;99.90
3360;DHT22;1693;49.602;11.046;2022-07-24T08:41:59;27.70;99.90
3360;DHT22;1693;49.602;11.046;2022-07-24T08:44:26;27.90;99.90
3360;DHT22;1693;49.602;11.046;2022-07-24T08:46:54;28.10;99.90
3360;DHT22;1693;49.602;11.046;2022-07-24T08:49:23;28.20;99.90
3360;DHT22;1693;49.602;11.046;2022-07-24T08:51:53;27.80;99.90
3360;DHT22;1693;49.602;11.046;2022-07-24T08:54:22;27.60;99.90
3360;DHT22;1693;49.602;11.046;2022-07-24T08:56:50;27.60;99.90
3360;DHT22;1693;49.602;11.046;2022-07-24T08:59:18;27.90;99.90
3360;DHT22;1693;49.602;11.046;2022-07-24T09:01:47;28.20;99.90
3360;DHT22;1693;49.602;11.046;2022-07-24T09:04:36;28.30;99.90
3360;DHT22;1693;49.602;11.046;2022-07-24T09:07:05;28.30;99.90
3360;DHT22;1693;49.602;11.046;2022-07-24T09:09:34;28.40;99.90
3360;DHT22;1693;49.602;11.046;2022-07-24T09:12:06;28.50;99.90
3360;DHT22;1693;49.602;11.046;2022-07-24T09:14:34;28.50;99.90
3360;DHT22;1693;49.602;11.046;2022-07-24T09:17:03;28.40;99.90
3360;DHT22;1693;49.602;11.046;2022-07-24T09:19:47;28.60;99.90
3360;DHT22;1693;49.602;11.046;2022-07-24T09:22:26;28.80;99.90
3360;DHT22;1693;49.602;11.046;2022-07-24T09:25:08;28.70;98.80
3360;DHT22;1693;49.602;11.046;2022-07-24T09:27:37;28.50;98.10
3360;DHT22;1693;49.602;11.046;2022-07-24T09:30:06;28.30;98.90
3360;DHT22;1693;49.602;11.046;2022-07-24T09:32:33;28.40;99.60
3360;DHT22;1693;49.602;11.046;2022-07-24T09:35:04;28.40;99.00
3360;DHT22;1693;49.602;11.046;2022-07-24T09:37:32;28.50;99.50
3360;DHT22;1693;49.602;11.046;2022-07-24T09:40:09;28.70;99.00
3360;DHT22;1693;49.602;11.046;2022-07-24T09:42:37;28.60;98.50
3360;DHT22;1693;49.602;11.046;2022-07-24T09:45:08;28.70;99.10
3360;DHT22;1693;49.602;11.046;2022-07-24T09:47:37;29.00;98.70
3360;DHT22;1693;49.602;11.046;2022-07-24T09:50:16;29.50;99.00
3360;DHT22;1693;49.602;11.046;2022-07-24T09:52:44;29.70;98.90
3360;DHT22;1693;49.602;11.046;2022-07-24T09:55:25;29.90;95.70
3360;DHT22;1693;49.602;11.046;2022-07-24T09:57:52;30.00;94.90
3360;DHT22;1693;49.602;11.046;2022-07-24T10:00:19;29.90;92.90
3360;DHT22;1693;49.602;11.046;2022-07-24T10:02:48;29.90;92.30
3360;DHT22;1693;49.602;11.046;2022-07-24T10:05:17;29.70;92.10
3360;DHT22;1693;49.602;11.046;2022-07-24T10:07:48;29.70;93.00
3360;DHT22;1693;49.602;11.046;2022-07-24T10:10:15;29.80;91.70
3360;DHT22;1693;49.602;11.046;2022-07-24T10:12:45;29.60;91.60
3360;DHT22;1693;49.602;11.046;2022-07-24T10:15:14;29.50;91.70
3360;DHT22;1693;49.602;11.046;2022-07-24T10:18:03;29.50;90.20
3360;DHT22;1693;49.602;11.046;2022-07-24T10:20:40;29.50;89.30
3360;DHT22;1693;49.602;11.046;2022-07-24T10:26:03;29.40;90.30
3360;DHT22;1693;49.602;11.046;2022-07-24T10:28:37;29.50;89.10
3360;DHT22;1693;49.602;11.046;2022-07-24T10:31:11;29.40;88.10
3360;DHT22;1693;49.602;11.046;2022-07-24T10:33:41;29.60;88.90
3360;DHT22;1693;49.602;11.046;2022-07-24T10:36:16;29.80;87.30
3360;DHT22;1693;49.602;11.046;2022-07-24T10:38:51;30.10;86.60
3360;DHT22;1693;49.602;11.046;2022-07-24T10:41:24;29.80;88.10
3360;DHT22;1693;49.602;11.046;2022-07-24T10:44:14;30.20;85.80
3360;DHT22;1693;49.602;11.046;2022-07-24T10:47:03;30.40;85.90
3360;DHT22;1693;49.602;11.046;2022-07-24T10:49:36;30.30;85.60
3360;DHT22;1693;49.602;11.046;2022-07-24T10:52:05;30.70;83.70
3360;DHT22;1693;49.602;11.046;2022-07-24T10:54:32;31.40;84.30
3360;DHT22;1693;49.602;11.046;2022-07-24T10:56:59;31.90;79.60
3360;DHT22;1693;49.602;11.046;2022-07-24T10:59:33;31.70;77.50
3360;DHT22;1693;49.602;11.046;2022-07-24T11:02:23;31.70;75.60
3360;DHT22;1693;49.602;11.046;2022-07-24T11:05:22;31.90;74.40
3360;DHT22;1693;49.602;11.046;2022-07-24T11:08:28;32.10;74.40
3360;DHT22;1693;49.602;11.046;2022-07-24T11:11:08;32.20;73.20
3360;DHT22;1693;49.602;11.046;2022-07-24T11:13:52;31.90;71.40
3360;DHT22;1693;49.602;11.046;2022-07-24T11:16:24;32.00;73.50
3360;DHT22;1693;49.602;11.046;2022-07-24T11:19:29;32.00;71.50
3360;DHT22;1693;49.602;11.046;2022-07-24T11:22:10;31.80;72.60
3360;DHT22;1693;49.602;11.046;2022-07-24T11:25:08;31.50;71.00
3360;DHT22;1693;49.602;11.046;2022-07-24T11:27:48;31.00;70.20
3360;DHT22;1693;49.602;11.046;2022-07-24T11:30:18;30.80;73.90
3360;DHT22;1693;49.602;11.046;2022-07-24T11:32:46;31.30;73.40
3360;DHT22;1693;49.602;11.046;2022-07-24T11:35:15;31.50;75.30
3360;DHT22;1693;49.602;11.046;2022-07-24T11:37:43;32.00;76.70
3360;DHT22;1693;49.602;11.046;2022-07-24T11:40:16;32.30;74.90
3360;DHT22;1693;49.602;11.046;2022-07-24T11:42:43;32.40;72.10
3360;DHT22;1693;49.602;11.046;2022-07-24T11:45:11;32.40;71.00
3360;DHT22;1693;49.602;11.046;2022-07-24T11:47:38;31.70;71.40
3360;DHT22;1693;49.602;11.046;2022-07-24T11:50:07;31.80;73.00
3360;DHT22;1693;49.602;11.046;2022-07-24T11:52:36;31.70;73.60
3360;DHT22;1693;49.602;11.046;2022-07-24T11:55:06;32.20;74.10
3360;DHT22;1693;49.602;11.046;2022-07-24T11:57:36;32.80;70.40
3360;DHT22;1693;49.602;11.046;2022-07-24T12:00:06;32.90;66.70
3360;DHT22;1693;49.602;11.046;2022-07-24T12:02:34;32.70;67.20
3360;DHT22;1693;49.602;11.046;2022-07-24T12:05:01;32.70;69.00
3360;DHT22;1693;49.602;11.046;2022-07-24T12:07:29;32.70;70.10
3360;DHT22;1693;49.602;11.046;2022-07-24T12:09:59;32.70;68.60
3360;DHT22;1693;49.602;11.046;2022-07-24T12:12:27;33.20;71.40
3360;DHT22;1693;49.602;11.046;2022-07-24T12:15:04;33.90;68.00
3360;DHT22;1693;49.602;11.046;2022-07-24T12:17:33;35.50;65.60
3360;DHT22;1693;49.602;11.046;2022-07-24T12:20:02;37.50;60.00
3360;DHT22;1693;49.602;11.046;2022-07-24T12:22:32;38.00;57.80
3360;DHT22;1693;49.602;11.046;2022-07-24T12:24:59;38.60;54.60
3360;DHT22;1693;49.602;11.046;2022-07-24T12:27:33;38.70;53.10
3360;DHT22;1693;49.602;11.046;2022-07-24T12:30:03;38.70;52.90
3360;DHT22;1693;49.602;11.046;2022-07-24T12:32:30;39.20;50.70
3360;DHT22;1693;49.602;11.046;2022-07-24T12:34:58;38.90;49.40
3360;DHT22;1693;49.602;11.046;2022-07-24T12:37:25;40.10;51.40
3360;DHT22;1693;49.602;11.046;2022-07-24T12:39:53;41.60;47.90
3360;DHT22;1693;49.602;11.046;2022-07-24T12:42:29;41.50;47.60
3360;DHT22;1693;49.602;11.046;2022-07-24T12:45:07;40.50;45.40
3360;DHT22;1693;49.602;11.046;2022-07-24T12:50:23;43.00;44.90
3360;DHT22;1693;49.602;11.046;2022-07-24T12:52:50;44.20;43.00
3360;DHT22;1693;49.602;11.046;2022-07-24T12:55:21;44.30;41.50
3360;DHT22;1693;49.602;11.046;2022-07-24T12:57:48;44.30;41.10
3360;DHT22;1693;49.602;11.046;2022-07-24T13:00:25;42.00;41.70
3360;DHT22;1693;49.602;11.046;2022-07-24T13:02:52;40.80;42.10
3360;DHT22;1693;49.602;11.046;2022-07-24T13:05:38;40.70;42.70
3360;DHT22;1693;49.602;11.046;2022-07-24T13:08:05;41.20;43.40
3360;DHT22;1693;49.602;11.046;2022-07-24T13:10:33;42.20;41.90
3360;DHT22;1693;49.602;11.046;2022-07-24T13:15:29;44.00;40.50
3360;DHT22;1693;49.602;11.046;2022-07-24T13:17:56;45.00;40.80
3360;DHT22;1693;49.602;11.046;2022-07-24T13:20:23;44.00;38.90
3360;DHT22;1693;49.602;11.046;2022-07-24T13:22:50;42.60;38.80
3360;DHT22;1693;49.602;11.046;2022-07-24T13:25:18;42.70;39.80
3360;DHT22;1693;49.602;11.046;2022-07-24T13:27:45;43.10;40.30
3360;DHT22;1693;49.602;11.046;2022-07-24T13:30:13;44.00;39.70
3360;DHT22;1693;49.602;11.046;2022-07-24T13:32:42;44.00;38.40
3360;DHT22;1693;49.602;11.046;2022-07-24T13:35:09;41.40;39.60
3360;DHT22;1693;49.602;11.046;2022-07-24T13:37:36;42.60;39.90
3360;DHT22;1693;49.602;11.046;2022-07-24T13:40:05;41.90;39.50
3360;DHT22;1693;49.602;11.046;2022-07-24T13:42:33;41.80;39.20
3360;DHT22;1693;49.602;11.046;2022-07-24T13:45:00;41.90;39.40
3360;DHT22;1693;49.602;11.046;2022-07-24T13:47:27;39.90;40.10
3360;DHT22;1693;49.602;11.046;2022-07-24T13:49:56;39.80;41.60
3360;DHT22;1693;49.602;11.046;2022-07-24T13:52:23;40.00;41.70
3360;DHT22;1693;49.602;11.046;2022-07-24T13:54:50;41.60;40.50
3360;DHT22;1693;49.602;11.046;2022-07-24T13:57:18;41.60;39.70
3360;DHT22;1693;49.602;11.046;2022-07-24T13:59:45;42.10;40.50
3360;DHT22;1693;49.602;11.046;2022-07-24T14:02:12;43.20;39.20
3360;DHT22;1693;49.602;11.046;2022-07-24T14:04:41;43.00;39.70
3360;DHT22;1693;49.602;11.046;2022-07-24T14:07:10;43.20;39.80
3360;DHT22;1693;49.602;11.046;2022-07-24T14:09:38;42.20;38.70
3360;DHT22;1693;49.602;11.046;2022-07-24T14:12:06;42.00;39.60
3360;DHT22;1693;49.602;11.046;2022-07-24T14:14:33;42.20;39.30
3360;DHT22;1693;49.602;11.046;2022-07-24T14:17:00;43.80;39.80
3360;DHT22;1693;49.602;11.046;2022-07-24T14:19:27;44.80;37.50
3360;DHT22;1693;49.602;11.046;2022-07-24T14:21:54;45.10;37.60
3360;DHT22;1693;49.602;11.046;2022-07-24T14:24:22;44.90;37.20
3360;DHT22;1693;49.602;11.046;2022-07-24T14:26:50;45.20;36.90
3360;DHT22;1693;49.602;11.046;2022-07-24T14:29:17;44.50;37.10
3360;DHT22;1693;49.602;11.046;2022-07-24T14:31:44;45.00;36.50
3360;DHT22;1693;49.602;11.046;2022-07-24T14:34:11;44.20;37.90
3360;DHT22;1693;49.602;11.046;2022-07-24T14:36:38;44.30;37.40
3360;DHT22;1693;49.602;11.046;2022-07-24T14:39:05;44.90;37.30
3360;DHT22;1693;49.602;11.046;2022-07-24T14:41:35;43.50;36.80
3360;DHT22;1693;49.602;11.046;2022-07-24T14:44:04;45.20;36.50
3360;DHT22;1693;49.602;11.046;2022-07-24T14:46:32;45.10;37.30
3360;DHT22;1693;49.602;11.046;2022-07-24T14:48:59;44.90;37.40
3360;DHT22;1693;49.602;11.046;2022-07-24T14:51:25;45.20;36.60
3360;DHT22;1693;49.602;11.046;2022-07-24T14:53:52;47.30;36.10
3360;DHT22;1693;49.602;11.046;2022-07-24T14:56:19;48.20;34.40
3360;DHT22;1693;49.602;11.046;2022-07-24T14:58:48;46.00;34.30
3360;DHT22;1693;49.602;11.046;2022-07-24T15:01:15;46.90;35.10
3360;DHT22;1693;49.602;11.046;2022-07-24T15:03:44;47.50;34.50
3360;DHT22;1693;49.602;11.046;2022-07-24T15:06:11;46.10;34.50
3360;DHT22;1693;49.602;11.046;2022-07-24T15:08:38;46.50;34.30
3360;DHT22;1693;49.602;11.046;2022-07-24T15:11:06;47.00;34.30
3360;DHT22;1693;49.602;11.046;2022-07-24T15:13:33;46.60;34.30
3360;DHT22;1693;49.602;11.046;2022-07-24T15:16:05;47.60;34.80
3360;DHT22;1693;49.602;11.046;2022-07-24T15:18:33;45.30;34.90
3360;DHT22;1693;49.602;11.046;2022-07-24T15:21:01;47.60;34.10
3360;DHT22;1693;49.602;11.046;2022-07-24T15:23:28;48.10;33.60
3360;DHT22;1693;49.602;11.046;2022-07-24T15:25:55;47.40;33.50
3360;DHT22;1693;49.602;11.046;2022-07-24T15:28:22;47.60;33.90
3360;DHT22;1693;49.602;11.046;2022-07-24T15:30:49;47.80;33.80
3360;DHT22;1693;49.602;11.046;2022-07-24T15:33:17;47.60;32.50
3360;DHT22;1693;49.602;11.046;2022-07-24T15:35:45;45.30;34.60
3360;DHT22;1693;49.602;11.046;2022-07-24T15:38:12;46.40;34.30
3360;DHT22;1693;49.602;11.046;2022-07-24T15:40:39;45.40;32.80
3360;DHT22;1693;49.602;11.046;2022-07-24T15:43:06;46.60;33.40
3360;DHT22;1693;49.602;11.046;2022-07-24T15:45:34;44.90;32.70
3360;DHT22;1693;49.602;11.046;2022-07-24T15:48:01;43.40;35.20
3360;DHT22;1693;49.602;11.046;2022-07-24T15:50:30;43.90;34.10
3360;DHT22;1693;49.602;11.046;2022-07-24T15:52:57;43.60;34.20
3360;DHT22;1693;49.602;11.046;2022-07-24T15:55:24;42.80;34.20
3360;DHT22;1693;49.602;11.046;2022-07-24T15:57:51;44.00;36.10
3360;DHT22;1693;49.602;11.046;2022-07-24T16:00:18;42.30;34.10
3360;DHT22;1693;49.602;11.046;2022-07-24T16:02:45;42.80;34.50
3360;DHT22;1693;49.602;11.046;2022-07-24T16:05:14;42.40;35.20